WEATHER DATA

YESTERDAY
Time Temp. Dewp. Hum. Bar.
00:04 4.9 -0.1 70 1027.2
00:13 4.8 -0.2 70 1027.2
00:24 4.7 -0.3 70 1027.2
00:34 4.6 -0.3 70 1027.1
00:44 4.5 -0.4 70 1027
00:53 4.3 -0.6 70 1026.9
01:03 4.2 -0.7 70 1026.8
01:15 4 -0.9 70 1026.8
01:25 3.9 -0.9 70 1026.9
01:34 3.8 -1 70 1027
01:44 3.7 -1.1 70 1027.1
01:55 3.5 -1.3 70 1027.2
02:05 3.3 -1.4 70 1027.2
02:15 3.2 -1.5 70 1027.2
02:25 3.1 -1.6 70 1027.1
02:36 2.9 -1.8 70 1027
02:45 2.8 -1.9 70 1027
02:54 2.6 -2 70 1027
03:06 2.5 -2.1 70 1026.9
03:15 2.3 -2.3 70 1026.8
03:36 2 -2.6 70 1026.9
03:45 1.9 -2.6 70 1026.8
03:56 1.8 -2.7 70 1026.8
04:06 1.7 -2.8 70 1026.7
04:16 1.6 -2.9 70 1026.8
04:26 1.4 -3.1 70 1026.7
04:35 1.3 -3.2 70 1026.7
04:46 1.2 -3.2 70 1026.6
04:57 1.1 -3.2 71 1026.7
05:07 1 -3.2 71 1026.7
05:16 0.9 -3.3 71 1026.6
05:27 0.8 -3.4 71 1026.5
05:36 0.8 -3.4 71 1026.4
05:47 0.7 -3.5 71 1026.2
05:57 0.6 -3.6 71 1026
06:07 0.6 -3.6 71 1026.2
06:18 0.5 -3.7 71 1026.2
06:28 0.4 -3.8 71 1026.2
06:38 0.3 -3.7 72 1026.1
06:48 0.3 -3.7 72 1026.2
06:58 0.2 -3.8 72 1026.1
07:08 0.1 -3.8 72 1026.1
07:19 0.1 -3.8 72 1026.2
07:29 0 -3.9 72 1026.3
07:38 0 -3.9 72 1026.3
07:48 0 -3.8 73 1026.4
07:58 -0.1 -3.9 73 1026.3
08:09 -0.1 -3.9 73 1026.3
08:19 -0.1 -3.9 73 1026.4
08:29 0 -3.8 73 1026.4
08:39 0 -3.8 73 1026.4
08:49 0 -3.6 74 1026.3
08:59 0.1 -3.5 74 1026.3
09:10 0.1 -3.5 74 1026.1
09:19 0.2 -3.4 74 1025.9
09:29 0.4 -3.3 74 1026
09:40 0.6 -2.9 75 1026
09:50 0.8 -2.8 75 1026
10:00 1.1 -2.5 75 1025.9
10:09 1.3 -2.3 75 1026.1
10:20 1.6 -1.9 76 1026.1
10:30 2 -1.6 76 1025.9
10:40 2.3 -1.3 76 1025.7
10:50 2.7 -1 76 1025.3
11:00 3.2 -0.5 76 1025
11:10 3.8 0 76 1025
11:20 4.3 0.4 76 1025
11:31 4.8 0.9 76 1025.1
11:40 5.1 1.2 76 1025
11:50 5.5 1.6 76 1025
12:01 5.8 1.7 75 1025
12:11 6.2 2.1 75 1024.9
12:20 6.5 2.4 75 1024.9
12:30 6.8 2.7 75 1024.7
12:41 7.1 3 75 1024.5
12:51 7.4 3.1 74 1024.5
13:00 7.7 3.4 74 1024.2
13:11 8 3.7 74 1024.1
13:21 8.3 3.9 74 1023.8
13:31 8.6 4.2 74 1023.7
13:40 8.7 4.1 73 1023.6
13:51 8.9 4.3 73 1023.5
14:01 9 4.4 73 1023.5
14:11 9.3 4.7 73 1023.3
14:21 9.6 5 73 1023.2
14:31 9.9 5.3 73 1023
14:41 10 5.2 72 1023
14:51 9.9 5.1 72 1022.8
15:02 9.9 5.1 72 1022.8
15:11 9.8 5 72 1022.5
15:21 9.6 4.8 72 1022.7
15:32 9.5 4.7 72 1022.8
15:42 9.3 4.5 72 1022.8
15:51 9.1 4.1 71 1022.7
16:01 8.9 3.9 71 1022.7
16:12 8.7 3.7 71 1022.7
16:22 8.6 3.6 71 1022.6
16:32 8.3 3.4 71 1022.4
16:42 8 3.1 71 1022.4
16:52 7.7 2.8 71 1022.3
17:02 7.4 2.5 71 1022.1
17:12 7 2.1 71 1022.4
17:22 6.6 1.7 71 1022.3
17:32 6.2 1.1 70 1022.2
17:42 5.9 0.9 70 1022.1
17:53 5.6 0.6 70 1022.1
18:03 5.4 0.4 70 1021.9
18:12 5.1 0.1 70 1022
18:23 4.9 -0.1 70 1022
18:33 4.6 -0.3 70 1022.1
18:43 4.5 -0.4 70 1022.1
18:52 4.4 -0.5 70 1021.9
19:02 4.2 -0.7 70 1021.8
19:13 4.1 -0.8 70 1021.7
19:23 4 -0.9 70 1021.6
19:33 3.9 -0.9 70 1021.7
19:44 3.7 -1.1 70 1021.6
19:53 3.6 -1.2 70 1021.7
20:03 3.5 -1.3 70 1021.6
20:14 3.4 -1.5 69 1021.7
20:24 3.3 -1.6 69 1021.6
20:33 3.2 -1.7 69 1021.6
20:44 3.1 -1.8 69 1021.7
20:56 2.9 -2 69 1021.7
21:05 2.8 -2 69 1021.8
21:15 2.6 -2.2 69 1021.8
21:25 2.4 -2.4 69 1021.8
21:36 2.3 -2.5 69 1021.8
21:46 2.1 -2.6 69 1021.7
21:55 2 -2.7 69 1021.6
22:06 1.9 -2.8 69 1021.5
22:16 1.7 -3 69 1021.5
22:25 1.6 -3.1 69 1021.5
22:36 1.5 -3.2 69 1021.4
22:46 1.4 -3.2 69 1021.4
22:56 1.3 -3.3 69 1021.4
23:05 1.2 -3.4 69 1021.3
23:16 1.1 -3.5 69 1021.4
23:26 1 -3.6 69 1021.4
23:36 0.9 -3.7 69 1021.4

DAY STATISTIC

2018-11-18
TEMPERATURE
AVERAGE
3.8
HIGH
10.0
14:41
LOW
-0.1
07:58
PRESSURE
AVERAGE
1024.4
HIGH
1027.2
00:04
LOW
1021.3
23:05
DEWPOINT
AVERAGE
-0.7
HIGH
5.3
14:31
LOW
-3.9
07:29
HUMIDITY
AVERAGE
72
HIGH
76
10:20
LOW
69
20:14
TEMPERATURE (°C)
LOW
-0.1
HIGH
10.0
AVERAGE
3.8
PRESSURE (hpa)
LOW
1021.3
HIGH
1027.2
AVERAGE
1024.4
DEVICE